createdAt,value
2023-05-05T00:00:11.327Z,10.94
2023-05-05T00:01:11.847Z,10.96
2023-05-05T00:02:12.364Z,10.94
2023-05-05T00:03:12.945Z,10.86
2023-05-05T00:04:12.918Z,10.75
2023-05-05T00:05:13.438Z,10.56
2023-05-05T00:06:13.964Z,10.67
2023-05-05T00:07:14.482Z,10.81
2023-05-05T00:08:14.986Z,10.84
2023-05-05T00:09:15.505Z,10.71
2023-05-05T00:10:15.988Z,10.71
2023-05-05T00:11:16.468Z,10.86
2023-05-05T00:12:16.949Z,10.99
2023-05-05T00:13:17.456Z,11.04
2023-05-05T00:14:17.948Z,10.89
2023-05-05T00:15:18.444Z,10.76
2023-05-05T00:16:18.952Z,10.81
2023-05-05T00:17:19.547Z,10.94
2023-05-05T00:18:19.524Z,11.08
2023-05-05T00:19:20.038Z,11.25
2023-05-05T00:20:20.586Z,11.15
2023-05-05T00:21:21.096Z,11.00
2023-05-05T00:22:21.613Z,11.14
2023-05-05T00:23:22.127Z,11.33
2023-05-05T00:24:22.632Z,11.41
2023-05-05T00:25:23.139Z,11.26
2023-05-05T00:26:23.647Z,11.33
2023-05-05T00:27:24.150Z,11.40
2023-05-05T00:28:24.643Z,11.54
2023-05-05T00:29:25.153Z,11.60
2023-05-05T00:30:25.657Z,11.70
2023-05-05T00:31:26.183Z,11.69
2023-05-05T00:32:26.767Z,11.57
2023-05-05T00:33:27.293Z,11.43
2023-05-05T00:34:27.807Z,11.26
2023-05-05T00:35:28.357Z,11.27
2023-05-05T00:36:28.874Z,11.22
2023-05-05T00:37:29.368Z,11.14
2023-05-05T00:38:29.904Z,11.00
2023-05-05T00:39:30.409Z,10.97
2023-05-05T00:40:30.908Z,11.02
2023-05-05T00:41:31.408Z,10.90
2023-05-05T00:42:31.912Z,10.84
2023-05-05T00:43:32.456Z,10.67
2023-05-05T00:44:32.971Z,10.67
2023-05-05T00:45:33.505Z,10.64
2023-05-05T00:46:34.089Z,10.63
2023-05-05T00:47:34.068Z,10.68
2023-05-05T00:48:34.569Z,10.68
2023-05-05T00:49:35.091Z,10.69
2023-05-05T00:50:35.614Z,10.78
2023-05-05T00:51:36.130Z,10.96
2023-05-05T00:52:36.641Z,10.84
2023-05-05T00:53:37.124Z,10.78
2023-05-05T00:54:37.601Z,10.61
2023-05-05T00:55:38.089Z,10.48
2023-05-05T00:56:38.572Z,10.35
2023-05-05T00:57:39.064Z,10.38
2023-05-05T00:58:39.574Z,10.42
2023-05-05T00:59:40.087Z,10.60
2023-05-05T01:00:40.581Z,10.86
2023-05-05T01:01:41.109Z,11.07
2023-05-05T01:02:41.665Z,11.18
2023-05-05T01:03:42.306Z,11.23
2023-05-05T01:04:42.301Z,11.29
2023-05-05T01:05:42.798Z,11.17
2023-05-05T01:06:43.331Z,11.12
2023-05-05T01:07:43.836Z,11.29
2023-05-05T01:08:44.368Z,11.32
2023-05-05T01:09:44.871Z,11.15
2023-05-05T01:10:45.376Z,11.04
2023-05-05T01:11:45.909Z,11.11
2023-05-05T01:12:46.429Z,11.05
2023-05-05T01:13:46.948Z,11.32
2023-05-05T01:14:47.450Z,11.40
2023-05-05T01:15:47.941Z,11.44
2023-05-05T01:16:48.411Z,11.54
2023-05-05T01:17:48.913Z,11.60
2023-05-05T01:18:49.532Z,11.62
2023-05-05T01:19:50.020Z,11.75
2023-05-05T01:20:50.494Z,11.83
2023-05-05T01:21:50.977Z,11.87
2023-05-05T01:22:51.466Z,11.77
2023-05-05T01:23:51.946Z,11.65
2023-05-05T01:24:52.435Z,11.36
2023-05-05T01:25:52.947Z,11.50
2023-05-05T01:26:53.461Z,11.62
2023-05-05T01:27:53.946Z,11.57
2023-05-05T01:28:54.461Z,11.47
2023-05-05T01:29:54.976Z,11.45
2023-05-05T01:30:55.476Z,11.44
2023-05-05T01:31:56.041Z,11.62
2023-05-05T01:32:56.175Z,11.69
2023-05-05T01:33:56.671Z,11.55
2023-05-05T01:34:57.158Z,11.45
2023-05-05T01:35:57.653Z,11.59
2023-05-05T01:36:58.151Z,11.59
2023-05-05T01:37:58.671Z,11.36
2023-05-05T01:38:59.164Z,11.18
2023-05-05T01:39:59.642Z,11.07
2023-05-05T01:41:00.122Z,11.00
2023-05-05T01:42:00.619Z,11.00
2023-05-05T01:43:01.119Z,10.87
2023-05-05T01:44:01.605Z,10.72
2023-05-05T01:45:02.124Z,10.63
2023-05-05T01:46:02.677Z,10.64
2023-05-05T01:47:03.228Z,10.69
2023-05-05T01:48:03.805Z,10.79
2023-05-05T01:49:04.341Z,10.94
2023-05-05T01:50:04.906Z,10.99
2023-05-05T01:51:04.903Z,10.94
2023-05-05T01:52:05.420Z,10.72
2023-05-05T01:53:05.931Z,10.75
2023-05-05T01:54:06.433Z,10.79
2023-05-05T01:55:06.924Z,10.89
2023-05-05T01:56:07.428Z,10.69
2023-05-05T01:57:07.908Z,10.60
2023-05-05T01:58:08.388Z,10.41
2023-05-05T01:59:08.898Z,10.51
2023-05-05T02:00:09.687Z,10.53
2023-05-05T02:01:09.771Z,10.63
2023-05-05T02:02:10.318Z,10.78
2023-05-05T02:03:11.017Z,10.99
2023-05-05T02:04:11.024Z,11.11
2023-05-05T02:05:11.526Z,11.40
2023-05-05T02:06:12.034Z,11.45
2023-05-05T02:07:12.534Z,11.51
2023-05-05T02:08:13.033Z,11.51
2023-05-05T02:09:13.598Z,11.65
2023-05-05T02:10:14.106Z,11.63
2023-05-05T02:11:14.608Z,11.68
2023-05-05T02:12:15.111Z,11.70
2023-05-05T02:13:15.716Z,11.77
2023-05-05T02:14:15.724Z,11.69
2023-05-05T02:15:16.250Z,11.51
2023-05-05T02:16:16.941Z,11.23
2023-05-05T02:17:16.931Z,10.99
2023-05-05T02:18:17.435Z,11.02
2023-05-05T02:19:17.940Z,11.10
2023-05-05T02:20:18.442Z,11.10
2023-05-05T02:21:18.972Z,11.15
2023-05-05T02:22:19.466Z,11.27
2023-05-05T02:23:19.976Z,11.02
2023-05-05T02:24:20.480Z,10.71
2023-05-05T02:25:20.973Z,10.49
2023-05-05T02:26:21.489Z,10.59
2023-05-05T02:27:22.004Z,10.78
2023-05-05T02:28:22.533Z,10.89
2023-05-05T02:29:23.052Z,10.81
2023-05-05T02:30:23.571Z,10.90
2023-05-05T02:31:24.099Z,10.89
2023-05-05T02:32:24.659Z,10.60
2023-05-05T02:33:25.164Z,10.48
2023-05-05T02:34:25.660Z,10.44
2023-05-05T02:35:26.145Z,10.19
2023-05-05T02:36:26.644Z,10.23
2023-05-05T02:37:27.135Z,10.25
2023-05-05T02:38:27.600Z,10.30
2023-05-05T02:39:28.073Z,10.26
2023-05-05T02:40:28.573Z,10.35
2023-05-05T02:41:29.058Z,10.48
2023-05-05T02:42:29.568Z,10.44
2023-05-05T02:43:30.084Z,10.38
2023-05-05T02:44:30.599Z,10.44
2023-05-05T02:45:31.087Z,10.42
2023-05-05T02:46:31.619Z,10.42
2023-05-05T02:47:32.138Z,10.38
2023-05-05T02:48:32.667Z,10.37
2023-05-05T02:49:33.146Z,10.34
2023-05-05T02:50:33.655Z,10.23
2023-05-05T02:51:34.149Z,10.34
2023-05-05T02:52:34.657Z,10.23
2023-05-05T02:53:35.162Z,10.25
2023-05-05T02:54:35.666Z,10.31
2023-05-05T02:55:36.179Z,10.19
2023-05-05T02:56:36.693Z,10.10
2023-05-05T02:57:37.198Z,10.13
2023-05-05T02:58:37.701Z,10.19
2023-05-05T02:59:38.217Z,10.35
2023-05-05T03:00:38.732Z,10.59
2023-05-05T03:01:39.304Z,10.72
2023-05-05T03:02:40.013Z,10.76
2023-05-05T03:03:40.120Z,10.64
2023-05-05T03:04:40.143Z,10.63
2023-05-05T03:05:40.654Z,10.46
2023-05-05T03:06:41.173Z,10.38
2023-05-05T03:07:41.672Z,10.26
2023-05-05T03:08:42.207Z,10.22
2023-05-05T03:09:42.749Z,10.22
2023-05-05T03:10:43.270Z,10.20
2023-05-05T03:11:43.793Z,10.23
2023-05-05T03:12:44.346Z,10.10
2023-05-05T03:13:44.882Z,10.23
2023-05-05T03:14:45.407Z,10.15
2023-05-05T03:15:45.912Z,10.20
2023-05-05T03:16:46.492Z,10.19
2023-05-05T03:17:46.572Z,10.10
2023-05-05T03:18:47.109Z,10.05
2023-05-05T03:19:47.630Z,10.10
2023-05-05T03:20:48.156Z,10.09
2023-05-05T03:21:48.660Z,10.04
2023-05-05T03:22:49.172Z,10.17
2023-05-05T03:23:49.676Z,10.31
2023-05-05T03:24:50.157Z,10.49
2023-05-05T03:25:50.664Z,10.60
2023-05-05T03:26:51.177Z,10.69
2023-05-05T03:27:51.723Z,10.72
2023-05-05T03:28:52.250Z,10.64
2023-05-05T03:29:52.788Z,10.41
2023-05-05T03:30:53.345Z,10.28
2023-05-05T03:31:53.926Z,10.20
2023-05-05T03:32:54.476Z,10.19
2023-05-05T03:33:55.063Z,10.20
2023-05-05T03:34:55.570Z,10.20
2023-05-05T03:35:56.117Z,10.22
2023-05-05T03:36:56.633Z,10.16
2023-05-05T03:37:57.136Z,10.12
2023-05-05T03:38:57.625Z,10.04
2023-05-05T03:39:58.107Z,10.04
2023-05-05T03:40:58.557Z,9.98
2023-05-05T03:41:59.057Z,10.09
2023-05-05T03:42:59.552Z,10.22
2023-05-05T03:44:00.051Z,10.01
2023-05-05T03:45:00.530Z,9.99
2023-05-05T03:46:00.994Z,9.95
2023-05-05T03:47:01.462Z,9.89
2023-05-05T03:48:02.079Z,10.10
2023-05-05T03:49:02.028Z,10.02
2023-05-05T03:50:02.562Z,10.10
2023-05-05T03:51:03.068Z,10.16
2023-05-05T03:52:03.584Z,10.07
2023-05-05T03:53:04.105Z,9.99
2023-05-05T03:54:04.568Z,9.97
2023-05-05T03:55:05.020Z,9.95
2023-05-05T03:56:05.472Z,9.89
2023-05-05T03:57:05.968Z,9.87
2023-05-05T03:58:06.415Z,9.84
2023-05-05T03:59:06.879Z,9.86
2023-05-05T04:00:07.656Z,10.17
2023-05-05T04:01:07.787Z,10.07
2023-05-05T04:02:08.319Z,10.15
2023-05-05T04:03:09.021Z,10.34
2023-05-05T04:04:09.166Z,10.48
2023-05-05T04:05:09.728Z,10.40
2023-05-05T04:06:10.231Z,10.42
2023-05-05T04:07:10.758Z,10.51
2023-05-05T04:08:11.309Z,10.56
2023-05-05T04:09:11.823Z,10.53
2023-05-05T04:10:12.365Z,10.56
2023-05-05T04:11:12.933Z,10.57
2023-05-05T04:12:13.468Z,10.68
2023-05-05T04:13:14.027Z,10.56
2023-05-05T04:14:14.596Z,10.56
2023-05-05T04:15:15.144Z,10.42
2023-05-05T04:16:15.723Z,10.28
2023-05-05T04:17:16.343Z,10.13
2023-05-05T04:18:16.851Z,10.15
2023-05-05T04:19:17.388Z,10.07
2023-05-05T04:20:17.887Z,9.94
2023-05-05T04:21:18.364Z,9.99
2023-05-05T04:22:18.858Z,10.02
2023-05-05T04:23:19.397Z,10.12
2023-05-05T04:24:19.922Z,10.22
2023-05-05T04:25:20.463Z,10.34
2023-05-05T04:26:21.031Z,10.41
2023-05-05T04:27:21.594Z,10.38
2023-05-05T04:28:22.282Z,10.30
2023-05-05T04:29:22.215Z,10.28
2023-05-05T04:30:22.880Z,10.13
2023-05-05T04:31:22.785Z,10.07
2023-05-05T04:32:23.356Z,9.99
2023-05-05T04:33:23.906Z,10.01
2023-05-05T04:34:24.425Z,9.95
2023-05-05T04:35:24.917Z,9.84
2023-05-05T04:36:25.376Z,9.95
2023-05-05T04:37:25.839Z,9.89
2023-05-05T04:38:26.386Z,9.83
2023-05-05T04:39:26.876Z,9.80
2023-05-05T04:40:27.348Z,9.73
2023-05-05T04:41:30.032Z,9.64
2023-05-05T04:42:28.302Z,9.89
2023-05-05T04:43:28.786Z,9.87
2023-05-05T04:44:29.263Z,9.91
2023-05-05T04:45:29.741Z,9.77
2023-05-05T04:46:30.229Z,9.66
2023-05-05T04:47:30.802Z,9.69
2023-05-05T04:48:31.319Z,9.91
2023-05-05T04:49:31.861Z,10.01
2023-05-05T04:50:32.432Z,10.20
2023-05-05T04:51:32.963Z,10.26
2023-05-05T04:52:33.523Z,10.31
2023-05-05T04:53:34.113Z,10.33
2023-05-05T04:54:34.664Z,10.33
2023-05-05T04:55:35.210Z,10.60
2023-05-05T04:56:35.763Z,10.61
2023-05-05T04:57:36.293Z,10.61
2023-05-05T04:58:36.805Z,10.82
2023-05-05T04:59:37.341Z,10.78
2023-05-05T05:00:37.864Z,10.81
2023-05-05T05:01:38.780Z,10.81
2023-05-05T05:02:38.883Z,10.87
2023-05-05T05:03:38.922Z,10.93
2023-05-05T05:04:38.914Z,11.02
2023-05-05T05:05:39.467Z,11.07
2023-05-05T05:06:39.987Z,11.08
2023-05-05T05:07:40.517Z,11.05
2023-05-05T05:08:41.082Z,11.00
2023-05-05T05:09:41.623Z,11.00
2023-05-05T05:10:42.138Z,11.00
2023-05-05T05:11:42.663Z,10.96
2023-05-05T05:12:43.254Z,11.00
2023-05-05T05:13:43.240Z,11.15
2023-05-05T05:14:43.775Z,11.15
2023-05-05T05:15:44.309Z,11.29
2023-05-05T05:16:44.853Z,11.26
2023-05-05T05:17:45.473Z,11.26
2023-05-05T05:18:45.504Z,11.32
2023-05-05T05:19:46.073Z,11.30
2023-05-05T05:20:46.616Z,11.29
2023-05-05T05:21:47.154Z,11.30
2023-05-05T05:22:47.678Z,11.30
2023-05-05T05:23:48.201Z,11.33
2023-05-05T05:24:48.721Z,11.51
2023-05-05T05:25:49.241Z,11.59
2023-05-05T05:26:49.761Z,11.57
2023-05-05T05:28:02.309Z,11.65
2023-05-05T05:28:50.511Z,11.75
2023-05-05T05:29:51.051Z,11.84
2023-05-05T05:30:51.559Z,11.81
2023-05-05T05:31:52.087Z,11.87
2023-05-05T05:32:52.686Z,11.97
2023-05-05T05:33:53.209Z,12.04
2023-05-05T05:34:53.754Z,11.99
2023-05-05T05:35:54.296Z,11.87
2023-05-05T05:36:54.804Z,11.87
2023-05-05T05:37:55.345Z,12.02
2023-05-05T05:38:55.925Z,12.12
2023-05-05T05:39:56.500Z,12.24
2023-05-05T05:40:57.037Z,12.18
2023-05-05T05:41:57.553Z,12.18
2023-05-05T05:42:58.066Z,12.21
2023-05-05T05:43:58.583Z,12.21
2023-05-05T05:44:59.087Z,12.24
2023-05-05T05:45:59.632Z,12.18
2023-05-05T05:47:00.159Z,12.22
2023-05-05T05:48:00.729Z,12.25
2023-05-05T05:49:01.280Z,12.28
2023-05-05T05:50:01.845Z,12.40
2023-05-05T05:51:02.378Z,12.40
2023-05-05T05:52:02.911Z,12.40
2023-05-05T05:53:03.444Z,12.37
2023-05-05T05:54:03.959Z,12.42
2023-05-05T05:55:04.496Z,12.49
2023-05-05T05:56:05.022Z,12.50
2023-05-05T05:57:05.520Z,12.47
2023-05-05T05:58:06.014Z,12.46
2023-05-05T05:59:06.513Z,12.45
2023-05-05T06:00:07.307Z,12.40
2023-05-05T06:01:07.486Z,12.45
2023-05-05T06:02:08.113Z,12.45
2023-05-05T06:03:08.301Z,12.46
2023-05-05T06:04:08.430Z,12.55
2023-05-05T06:05:08.449Z,12.64
2023-05-05T06:06:08.957Z,12.72
2023-05-05T06:07:09.465Z,12.73
2023-05-05T06:08:10.029Z,12.78
2023-05-05T06:09:10.572Z,12.78
2023-05-05T06:10:25.083Z,12.87
2023-05-05T06:11:11.304Z,12.95
2023-05-05T06:12:11.856Z,13.03
2023-05-05T06:13:12.479Z,13.08
2023-05-05T06:14:12.506Z,13.12
2023-05-05T06:15:13.030Z,13.20
2023-05-05T06:16:13.644Z,13.22
2023-05-05T06:17:13.683Z,13.31
2023-05-05T06:18:14.252Z,13.37
2023-05-05T06:19:14.316Z,13.41
2023-05-05T06:20:14.857Z,13.50
2023-05-05T06:21:15.392Z,13.56
2023-05-05T06:22:15.923Z,13.67
2023-05-05T06:23:16.485Z,13.70
2023-05-05T06:24:17.024Z,13.71
2023-05-05T06:25:17.559Z,13.71
2023-05-05T06:26:18.133Z,13.81
2023-05-05T06:27:18.668Z,13.93
2023-05-05T06:28:19.152Z,14.03
2023-05-05T06:29:19.718Z,14.14
2023-05-05T06:30:20.251Z,14.20
2023-05-05T06:31:20.776Z,14.18
2023-05-05T06:32:21.314Z,14.14
2023-05-05T06:33:21.847Z,14.03
2023-05-05T06:34:22.390Z,14.20
2023-05-05T06:35:22.912Z,14.25
2023-05-05T06:36:23.560Z,14.32
2023-05-05T06:37:23.576Z,14.35
2023-05-05T06:38:24.099Z,14.41
2023-05-05T06:39:24.625Z,14.58
2023-05-05T06:40:25.159Z,14.65
2023-05-05T06:41:25.718Z,14.66
2023-05-05T06:42:26.261Z,14.72
2023-05-05T06:43:26.803Z,14.77
2023-05-05T06:44:27.302Z,14.86
2023-05-05T06:45:27.877Z,15.00
2023-05-05T06:46:27.912Z,15.02
2023-05-05T06:47:27.901Z,15.10
2023-05-05T06:48:27.899Z,15.11
2023-05-05T06:49:28.438Z,15.18
2023-05-05T06:50:28.984Z,15.24
2023-05-05T06:51:29.505Z,15.31
2023-05-05T06:52:30.037Z,15.29
2023-05-05T06:53:30.552Z,15.37
2023-05-05T06:54:31.074Z,15.42
2023-05-05T06:55:31.624Z,15.49
2023-05-05T06:56:32.159Z,15.64
2023-05-05T06:57:32.660Z,15.72
2023-05-05T06:58:33.203Z,15.82
2023-05-05T06:59:33.780Z,15.86
2023-05-05T07:00:34.326Z,15.94
2023-05-05T07:01:34.307Z,16.00
2023-05-05T07:02:34.871Z,16.05
2023-05-05T07:03:35.441Z,16.13
2023-05-05T07:04:35.389Z,16.20
2023-05-05T07:05:35.928Z,16.28
2023-05-05T07:06:36.425Z,16.31
2023-05-05T07:07:36.984Z,16.35
2023-05-05T07:08:37.521Z,16.49
2023-05-05T07:09:38.027Z,16.64
2023-05-05T07:10:38.555Z,16.75
2023-05-05T07:11:39.070Z,16.76
2023-05-05T07:12:39.624Z,16.83
2023-05-05T07:13:39.576Z,16.81
2023-05-05T07:14:40.050Z,16.83
2023-05-05T07:15:40.677Z,16.96
2023-05-05T07:16:40.613Z,17.09
2023-05-05T07:17:40.595Z,17.20
2023-05-05T07:18:40.576Z,17.26
2023-05-05T07:19:41.090Z,17.38
2023-05-05T07:20:41.574Z,17.48
2023-05-05T07:21:42.066Z,17.44
2023-05-05T07:22:42.619Z,17.44
2023-05-05T07:23:43.134Z,17.52
2023-05-05T07:24:43.610Z,17.56
2023-05-05T07:25:44.084Z,17.67
2023-05-05T07:26:44.559Z,17.76
2023-05-05T07:27:45.012Z,17.86
2023-05-05T07:28:45.458Z,17.94
2023-05-05T07:29:45.907Z,18.08
2023-05-05T07:30:46.360Z,18.19
2023-05-05T07:31:46.880Z,18.26
2023-05-05T07:32:46.856Z,18.38
2023-05-05T07:33:46.809Z,18.40
2023-05-05T07:34:47.278Z,18.40
2023-05-05T07:35:47.773Z,18.41
2023-05-05T07:36:48.236Z,18.47
2023-05-05T07:37:48.675Z,18.50
2023-05-05T07:38:49.124Z,18.55
2023-05-05T07:39:49.565Z,18.59
2023-05-05T07:40:50.183Z,18.62
2023-05-05T07:41:50.115Z,18.52
2023-05-05T07:42:50.612Z,18.55
2023-05-05T07:43:51.072Z,18.62
2023-05-05T07:44:51.523Z,18.59
2023-05-05T07:45:52.021Z,18.44
2023-05-05T07:46:52.473Z,18.44
2023-05-05T07:47:52.977Z,18.43
2023-05-05T07:48:52.914Z,18.41
2023-05-05T07:49:53.370Z,18.43
2023-05-05T07:50:53.824Z,18.45
2023-05-05T07:51:54.297Z,18.55
2023-05-05T07:53:02.501Z,18.52
2023-05-05T07:53:54.937Z,18.56
2023-05-05T07:54:55.394Z,18.63
2023-05-05T07:55:55.857Z,18.68
2023-05-05T07:56:56.352Z,18.71
2023-05-05T07:57:56.797Z,18.86
2023-05-05T07:58:57.232Z,18.86
2023-05-05T07:59:57.688Z,18.93
2023-05-05T08:00:58.129Z,19.00
2023-05-05T08:01:58.607Z,18.99
2023-05-05T08:02:59.141Z,18.99
2023-05-05T08:03:59.078Z,19.08
2023-05-05T08:04:58.965Z,19.22
2023-05-05T08:05:59.410Z,19.30
2023-05-05T08:06:59.849Z,19.39
2023-05-05T08:08:00.300Z,19.49
2023-05-05T08:09:00.742Z,19.41
2023-05-05T08:10:01.222Z,19.44
2023-05-05T08:11:01.698Z,19.44
2023-05-05T08:12:02.136Z,19.47
2023-05-05T08:13:02.574Z,19.52
2023-05-05T08:14:03.038Z,19.54
2023-05-05T08:15:03.483Z,19.55
2023-05-05T08:16:03.965Z,19.69
2023-05-05T08:17:04.446Z,19.69
2023-05-05T08:18:04.933Z,19.67
2023-05-05T08:19:09.747Z,19.70
2023-05-05T08:20:04.954Z,19.70
2023-05-05T08:21:05.389Z,19.73
2023-05-05T08:22:05.809Z,19.63
2023-05-05T08:23:06.229Z,19.52
2023-05-05T08:24:06.662Z,19.56
2023-05-05T08:25:07.265Z,19.63
2023-05-05T08:26:07.231Z,19.56
2023-05-05T08:27:07.658Z,19.62
2023-05-05T08:28:08.071Z,19.64
2023-05-05T08:29:08.492Z,19.66
2023-05-05T08:30:08.928Z,19.77
2023-05-05T08:31:09.406Z,19.77
2023-05-05T08:32:09.861Z,19.84
2023-05-05T08:33:10.340Z,19.84
2023-05-05T08:34:10.253Z,19.73
2023-05-05T08:35:11.112Z,19.69
2023-05-05T08:36:11.637Z,19.79
2023-05-05T08:37:10.949Z,19.92
2023-05-05T08:38:11.453Z,20.00
2023-05-05T08:39:11.881Z,19.88
2023-05-05T08:40:12.329Z,19.85
2023-05-05T08:41:12.740Z,19.71
2023-05-05T08:42:19.680Z,19.82
2023-05-05T08:43:13.661Z,19.70
2023-05-05T08:44:13.424Z,19.63
2023-05-05T08:45:13.836Z,19.79
2023-05-05T08:46:14.272Z,19.89
2023-05-05T08:47:14.691Z,19.96
2023-05-05T08:48:15.136Z,19.88
2023-05-05T08:49:15.559Z,19.86
2023-05-05T08:50:15.960Z,19.77
2023-05-05T08:51:16.364Z,19.70
2023-05-05T08:52:16.925Z,19.69
2023-05-05T08:53:16.822Z,19.62
2023-05-05T08:54:17.256Z,19.62
2023-05-05T08:55:17.694Z,19.58
2023-05-05T08:56:18.246Z,19.62
2023-05-05T08:57:18.118Z,19.55
2023-05-05T08:58:18.566Z,19.52
2023-05-05T08:59:18.998Z,19.59
2023-05-05T09:00:19.425Z,19.62
2023-05-05T09:01:19.915Z,19.54
2023-05-05T09:02:19.863Z,19.51
2023-05-05T09:03:21.333Z,19.48
2023-05-05T09:04:20.636Z,19.58
2023-05-05T09:05:21.079Z,19.49
2023-05-05T09:06:21.499Z,19.48
2023-05-05T09:07:21.912Z,19.45
2023-05-05T09:08:22.393Z,19.41
2023-05-05T09:09:22.834Z,19.36
2023-05-05T09:10:23.300Z,19.27
2023-05-05T09:11:23.737Z,19.18
2023-05-05T09:12:24.146Z,19.14
2023-05-05T09:13:24.546Z,19.14
2023-05-05T09:14:25.039Z,19.16
2023-05-05T09:15:24.919Z,19.15
2023-05-05T09:16:25.379Z,19.21
2023-05-05T09:17:25.868Z,19.29
2023-05-05T09:18:26.313Z,19.30
2023-05-05T09:19:26.743Z,19.27
2023-05-05T09:20:27.198Z,19.30
2023-05-05T09:21:27.650Z,19.27
2023-05-05T09:22:28.106Z,19.26
2023-05-05T09:23:28.543Z,19.24
2023-05-05T09:24:28.982Z,19.26
2023-05-05T09:25:29.414Z,19.16
2023-05-05T09:26:29.838Z,19.04
2023-05-05T09:27:30.271Z,18.93
2023-05-05T09:28:30.722Z,18.90
2023-05-05T09:29:31.142Z,18.81
2023-05-05T09:30:31.590Z,18.78
2023-05-05T09:31:32.053Z,18.75
2023-05-05T09:32:32.538Z,18.65
2023-05-05T09:33:32.979Z,18.52
2023-05-05T09:34:33.416Z,18.43
2023-05-05T09:35:33.869Z,18.52
2023-05-05T09:36:34.332Z,18.40
2023-05-05T09:37:34.804Z,18.37
2023-05-05T09:38:35.268Z,18.31
2023-05-05T09:39:36.737Z,18.22
2023-05-05T09:40:36.038Z,18.16
2023-05-05T09:41:35.999Z,18.13
2023-05-05T09:42:36.492Z,18.11
2023-05-05T09:43:36.965Z,18.18
2023-05-05T09:44:37.426Z,18.11
2023-05-05T09:45:37.949Z,18.01
2023-05-05T09:46:37.781Z,18.08
2023-05-05T09:47:37.928Z,18.00
2023-05-05T09:48:37.984Z,17.95
2023-05-05T09:49:38.443Z,17.89
2023-05-05T09:50:38.879Z,17.86
2023-05-05T09:51:39.329Z,17.85
2023-05-05T09:52:39.776Z,17.78
2023-05-05T09:53:40.228Z,17.79
2023-05-05T09:54:40.689Z,17.83
2023-05-05T09:55:41.163Z,17.78
2023-05-05T09:56:41.665Z,17.80
2023-05-05T09:57:42.104Z,17.83
2023-05-05T09:58:42.589Z,17.83
2023-05-05T09:59:43.065Z,17.89
2023-05-05T10:00:43.525Z,17.97
2023-05-05T10:01:44.058Z,17.95
2023-05-05T10:02:43.994Z,17.95
2023-05-05T10:03:44.476Z,18.01
2023-05-05T10:04:44.960Z,17.98
2023-05-05T10:05:45.450Z,17.98
2023-05-05T10:06:45.931Z,17.97
2023-05-05T10:07:46.394Z,17.97
2023-05-05T10:08:46.840Z,18.01
2023-05-05T10:09:47.325Z,18.00
2023-05-05T10:10:47.788Z,18.00
2023-05-05T10:11:48.239Z,18.00
2023-05-05T10:12:48.747Z,18.01
2023-05-05T10:13:48.653Z,18.01
2023-05-05T10:14:49.125Z,17.92
2023-05-05T10:15:49.621Z,17.85
2023-05-05T10:16:50.086Z,17.86
2023-05-05T10:18:05.960Z,17.95
2023-05-05T10:18:50.617Z,17.97
2023-05-05T10:19:51.047Z,17.94
2023-05-05T10:20:51.488Z,17.74
2023-05-05T10:21:51.968Z,17.74
2023-05-05T10:22:52.434Z,17.82
2023-05-05T10:23:52.907Z,17.83
2023-05-05T10:24:53.378Z,17.87
2023-05-05T10:25:53.836Z,17.89
2023-05-05T10:26:54.294Z,17.90
2023-05-05T10:27:54.738Z,17.95
2023-05-05T10:28:55.175Z,18.00
2023-05-05T10:29:55.614Z,18.05
2023-05-05T10:30:56.042Z,18.11
2023-05-05T10:31:56.552Z,18.07
2023-05-05T10:33:09.596Z,18.08
2023-05-05T10:33:56.615Z,18.03
2023-05-05T10:34:56.578Z,18.10
2023-05-05T10:35:57.015Z,18.13
2023-05-05T10:36:57.456Z,18.19
2023-05-05T10:37:57.909Z,18.25
2023-05-05T10:38:58.350Z,18.40
2023-05-05T10:39:58.793Z,18.31
2023-05-05T10:40:59.259Z,18.19
2023-05-05T10:41:59.732Z,18.23
2023-05-05T10:43:00.177Z,18.40
2023-05-05T10:44:02.174Z,18.53
2023-05-05T10:45:00.826Z,18.63
2023-05-05T10:46:00.969Z,18.68
2023-05-05T10:47:00.942Z,18.75
2023-05-05T10:48:01.467Z,18.93
2023-05-05T10:49:01.409Z,19.39
2023-05-05T10:50:01.871Z,19.55
2023-05-05T10:51:02.307Z,19.76
2023-05-05T10:52:02.738Z,19.85
2023-05-05T10:53:03.171Z,19.96
2023-05-05T10:54:03.649Z,20.02
2023-05-05T10:55:03.537Z,20.21
2023-05-05T10:56:03.944Z,20.26
2023-05-05T10:57:04.353Z,20.16
2023-05-05T10:58:04.748Z,20.32
2023-05-05T10:59:05.154Z,20.41
2023-05-05T11:00:05.649Z,20.67
2023-05-05T11:01:05.639Z,20.56
2023-05-05T11:02:06.080Z,20.29
2023-05-05T11:03:06.586Z,20.31
2023-05-05T11:04:06.589Z,20.31
2023-05-05T11:05:06.503Z,20.14
2023-05-05T11:06:06.925Z,20.16
2023-05-05T11:07:07.342Z,20.04
2023-05-05T11:08:07.766Z,20.10
2023-05-05T11:09:08.163Z,20.25
2023-05-05T11:10:08.867Z,20.34
2023-05-05T11:11:08.859Z,20.52
2023-05-05T11:12:09.252Z,20.59
2023-05-05T11:13:09.671Z,20.65
2023-05-05T11:14:10.065Z,20.85
2023-05-05T11:15:10.459Z,20.85
2023-05-05T11:16:10.859Z,20.87
2023-05-05T11:17:11.256Z,20.90
2023-05-05T11:18:11.705Z,21.05
2023-05-05T11:19:12.498Z,21.05
2023-05-05T11:20:11.727Z,20.97
2023-05-05T11:21:12.125Z,21.20
2023-05-05T11:22:12.496Z,21.24
2023-05-05T11:23:15.247Z,21.22
2023-05-05T11:24:12.829Z,21.30
2023-05-05T11:25:13.208Z,21.29
2023-05-05T11:26:13.639Z,21.29
2023-05-05T11:27:14.023Z,21.35
2023-05-05T11:28:14.390Z,21.40
2023-05-05T11:29:14.766Z,21.37
2023-05-05T11:30:15.138Z,21.42
2023-05-05T11:31:15.567Z,21.39
2023-05-05T11:32:15.400Z,21.33
2023-05-05T11:33:15.923Z,21.27
2023-05-05T11:34:15.852Z,21.24
2023-05-05T11:35:15.806Z,21.25
2023-05-05T11:36:15.606Z,21.27
2023-05-05T11:37:15.990Z,21.30
2023-05-05T11:38:16.399Z,21.39
2023-05-05T11:39:16.785Z,21.42
2023-05-05T11:40:17.188Z,21.43
2023-05-05T11:41:17.550Z,21.46
2023-05-05T11:42:17.901Z,21.55
2023-05-05T11:43:18.262Z,21.66
2023-05-05T11:44:18.639Z,21.70
2023-05-05T11:45:19.182Z,21.73
2023-05-05T11:46:19.180Z,21.72
2023-05-05T11:47:19.015Z,21.83
2023-05-05T11:48:19.395Z,21.92
2023-05-05T11:49:19.763Z,21.82
2023-05-05T11:50:20.124Z,21.70
2023-05-05T11:51:20.505Z,21.85
2023-05-05T11:52:20.920Z,22.00
2023-05-05T11:53:21.285Z,22.17
2023-05-05T11:54:21.660Z,22.08
2023-05-05T11:55:22.016Z,22.20
2023-05-05T11:56:22.385Z,22.38
2023-05-05T11:57:22.733Z,22.53
2023-05-05T11:58:23.178Z,22.53
2023-05-05T11:59:23.041Z,22.65
2023-05-05T12:00:22.892Z,22.78
2023-05-05T12:01:22.641Z,22.87
2023-05-05T12:02:23.035Z,22.87
2023-05-05T12:03:23.511Z,22.83
2023-05-05T12:04:23.372Z,22.70
2023-05-05T12:05:23.175Z,22.59
2023-05-05T12:06:23.529Z,22.51
2023-05-05T12:07:23.875Z,22.47
2023-05-05T12:08:24.207Z,22.50
2023-05-05T12:09:24.538Z,22.44
2023-05-05T12:10:24.906Z,22.23
2023-05-05T12:11:25.232Z,22.15
2023-05-05T12:12:25.581Z,22.04
2023-05-05T12:13:25.607Z,21.93
2023-05-05T12:14:25.573Z,21.85
2023-05-05T12:15:25.353Z,21.72
2023-05-05T12:16:25.716Z,21.67
2023-05-05T12:17:26.054Z,21.70
2023-05-05T12:18:26.421Z,21.72
2023-05-05T12:19:26.763Z,21.83
2023-05-05T12:20:27.107Z,21.93
2023-05-05T12:21:27.458Z,22.02
2023-05-05T12:22:27.822Z,22.17
2023-05-05T12:23:28.212Z,22.25
2023-05-05T12:24:28.598Z,22.22
2023-05-05T12:25:28.951Z,22.23
2023-05-05T12:26:29.358Z,22.08
2023-05-05T12:27:29.167Z,22.13
2023-05-05T12:28:29.549Z,22.15
2023-05-05T12:29:29.918Z,22.33
2023-05-05T12:30:30.364Z,22.32
2023-05-05T12:31:30.289Z,22.36
2023-05-05T12:32:30.210Z,22.48
2023-05-05T12:33:29.992Z,22.70
2023-05-05T12:34:30.318Z,22.55
2023-05-05T12:35:30.635Z,22.39
2023-05-05T12:36:30.975Z,22.32
2023-05-05T12:37:31.301Z,22.10
2023-05-05T12:38:31.636Z,22.08
2023-05-05T12:39:31.998Z,22.02
2023-05-05T12:40:32.340Z,21.95
2023-05-05T12:41:32.698Z,22.06
2023-05-05T12:42:33.093Z,22.11
2023-05-05T12:43:33.439Z,22.07
2023-05-05T12:44:33.307Z,21.92
2023-05-05T12:45:33.673Z,21.95
2023-05-05T12:46:34.130Z,21.93
2023-05-05T12:47:33.963Z,21.91
2023-05-05T12:48:34.387Z,22.11
2023-05-05T12:49:34.154Z,22.22
2023-05-05T12:50:34.498Z,22.17
2023-05-05T12:51:34.866Z,22.20
2023-05-05T12:52:35.265Z,22.15
2023-05-05T12:53:35.612Z,22.25
2023-05-05T12:54:35.975Z,22.45
2023-05-05T12:55:36.390Z,22.65
2023-05-05T12:56:36.223Z,22.81
2023-05-05T12:57:36.002Z,22.80
2023-05-05T12:58:36.402Z,22.69